sensor_id;sensor_type;location;lat;lon;timestamp;pressure;altitude;pressure_sealevel;temperature;humidity
55068;BME280;40965;52.368;9.712;2023-03-13T00:02:18;99734.97;;;7.63;100.00
55068;BME280;40965;52.368;9.712;2023-03-13T00:04:45;99728.88;;;7.61;100.00
55068;BME280;40965;52.368;9.712;2023-03-13T00:07:19;99726.34;;;7.58;100.00
55068;BME280;40965;52.368;9.712;2023-03-13T00:09:51;99722.88;;;7.57;100.00
55068;BME280;40965;52.368;9.712;2023-03-13T00:12:18;99721.97;;;7.58;100.00
55068;BME280;40965;52.368;9.712;2023-03-13T00:14:45;99709.84;;;7.56;100.00
55068;BME280;40965;52.368;9.712;2023-03-13T00:17:12;99704.72;;;7.51;100.00
55068;BME280;40965;52.368;9.712;2023-03-13T00:19:40;99703.00;;;7.49;100.00
55068;BME280;40965;52.368;9.712;2023-03-13T00:22:27;99702.16;;;7.45;100.00
55068;BME280;40965;52.368;9.712;2023-03-13T00:24:57;99701.31;;;7.44;100.00
55068;BME280;40965;52.368;9.712;2023-03-13T00:27:35;99693.53;;;7.41;100.00
55068;BME280;40965;52.368;9.712;2023-03-13T00:30:32;99697.00;;;7.42;100.00
55068;BME280;40965;52.368;9.712;2023-03-13T00:33:06;99698.72;;;7.43;100.00
55068;BME280;40965;52.368;9.712;2023-03-13T00:35:34;99692.66;;;7.42;100.00
55068;BME280;40965;52.368;9.712;2023-03-13T00:38:04;99682.22;;;7.44;100.00
55068;BME280;40965;52.368;9.712;2023-03-13T00:40:31;99686.50;;;7.48;100.00
55068;BME280;40965;52.368;9.712;2023-03-13T00:43:02;99681.28;;;7.48;100.00
55068;BME280;40965;52.368;9.712;2023-03-13T00:45:29;99675.19;;;7.52;100.00
55068;BME280;40965;52.368;9.712;2023-03-13T00:47:58;99678.50;;;7.64;100.00
55068;BME280;40965;52.368;9.712;2023-03-13T00:50:28;99668.91;;;7.67;100.00
55068;BME280;40965;52.368;9.712;2023-03-13T00:52:56;99664.56;;;7.66;100.00
55068;BME280;40965;52.368;9.712;2023-03-13T00:55:23;99663.69;;;7.67;100.00
55068;BME280;40965;52.368;9.712;2023-03-13T00:57:51;99666.28;;;7.69;100.00
55068;BME280;40965;52.368;9.712;2023-03-13T01:00:18;99658.47;;;7.69;100.00
55068;BME280;40965;52.368;9.712;2023-03-13T01:02:48;99651.50;;;7.71;100.00
55068;BME280;40965;52.368;9.712;2023-03-13T01:05:16;99650.53;;;7.80;100.00
55068;BME280;40965;52.368;9.712;2023-03-13T01:07:45;99647.84;;;7.84;100.00
55068;BME280;40965;52.368;9.712;2023-03-13T01:10:23;99641.75;;;7.85;100.00
55068;BME280;40965;52.368;9.712;2023-03-13T01:12:52;99645.97;;;7.94;100.00
55068;BME280;40965;52.368;9.712;2023-03-13T01:15:19;99637.25;;;7.97;100.00
55068;BME280;40965;52.368;9.712;2023-03-13T01:17:46;99628.63;;;7.93;100.00
55068;BME280;40965;52.368;9.712;2023-03-13T01:20:12;99635.56;;;7.94;100.00
55068;BME280;40965;52.368;9.712;2023-03-13T01:22:39;99621.72;;;7.90;100.00
55068;BME280;40965;52.368;9.712;2023-03-13T01:25:06;99623.50;;;7.87;100.00
55068;BME280;40965;52.368;9.712;2023-03-13T01:27:33;99614.00;;;7.83;100.00
55068;BME280;40965;52.368;9.712;2023-03-13T01:29:59;99609.72;;;7.78;100.00
55068;BME280;40965;52.368;9.712;2023-03-13T01:32:26;99607.91;;;7.82;100.00
55068;BME280;40965;52.368;9.712;2023-03-13T01:34:52;99607.03;;;7.83;100.00
55068;BME280;40965;52.368;9.712;2023-03-13T01:37:19;99605.28;;;7.85;100.00
55068;BME280;40965;52.368;9.712;2023-03-13T01:39:45;99606.13;;;7.86;100.00
55068;BME280;40965;52.368;9.712;2023-03-13T01:42:12;99600.97;;;7.83;100.00
55068;BME280;40965;52.368;9.712;2023-03-13T01:44:50;99599.28;;;7.80;100.00
55068;BME280;40965;52.368;9.712;2023-03-13T01:47:20;99588.91;;;7.77;100.00
55068;BME280;40965;52.368;9.712;2023-03-13T01:49:48;99583.72;;;7.74;100.00
55068;BME280;40965;52.368;9.712;2023-03-13T01:52:19;99569.91;;;7.69;100.00
55068;BME280;40965;52.368;9.712;2023-03-13T01:54:54;99564.81;;;7.61;100.00
55068;BME280;40965;52.368;9.712;2023-03-13T01:57:30;99564.91;;;7.53;100.00
55068;BME280;40965;52.368;9.712;2023-03-13T02:00:03;99565.03;;;7.47;100.00
55068;BME280;40965;52.368;9.712;2023-03-13T02:02:34;99552.94;;;7.40;100.00
55068;BME280;40965;52.368;9.712;2023-03-13T02:05:03;99548.72;;;7.33;100.00
55068;BME280;40965;52.368;9.712;2023-03-13T02:07:44;99535.81;;;7.23;100.00
55068;BME280;40965;52.368;9.712;2023-03-13T02:10:15;99529.84;;;7.15;100.00
55068;BME280;40965;52.368;9.712;2023-03-13T02:12:43;99517.81;;;7.06;100.00
55068;BME280;40965;52.368;9.712;2023-03-13T02:15:17;99511.81;;;7.01;100.00
55068;BME280;40965;52.368;9.712;2023-03-13T02:17:45;99516.19;;;6.99;100.00
55068;BME280;40965;52.368;9.712;2023-03-13T02:20:17;99510.09;;;6.99;100.00
55068;BME280;40965;52.368;9.712;2023-03-13T02:22:59;99495.41;;;6.98;100.00
55068;BME280;40965;52.368;9.712;2023-03-13T02:28:17;99487.56;;;6.96;100.00
55068;BME280;40965;52.368;9.712;2023-03-13T02:31:00;99476.31;;;6.95;100.00
55068;BME280;40965;52.368;9.712;2023-03-13T02:33:30;99474.56;;;6.98;100.00
55068;BME280;40965;52.368;9.712;2023-03-13T02:35:59;99465.00;;;7.00;100.00
55068;BME280;40965;52.368;9.712;2023-03-13T02:38:29;99465.78;;;7.05;100.00
55068;BME280;40965;52.368;9.712;2023-03-13T02:40:58;99454.44;;;7.09;100.00
55068;BME280;40965;52.368;9.712;2023-03-13T02:43:29;99445.78;;;7.10;100.00
55068;BME280;40965;52.368;9.712;2023-03-13T02:46:01;99440.59;;;7.08;100.00
55068;BME280;40965;52.368;9.712;2023-03-13T02:48:37;99435.38;;;7.08;100.00
55068;BME280;40965;52.368;9.712;2023-03-13T02:54:01;99414.56;;;7.08;100.00
55068;BME280;40965;52.368;9.712;2023-03-13T02:56:32;99408.50;;;7.09;100.00
55068;BME280;40965;52.368;9.712;2023-03-13T02:58:59;99405.00;;;7.10;100.00
55068;BME280;40965;52.368;9.712;2023-03-13T03:01:26;99389.34;;;7.14;100.00
55068;BME280;40965;52.368;9.712;2023-03-13T03:03:53;99385.84;;;7.16;100.00
55068;BME280;40965;52.368;9.712;2023-03-13T03:06:20;99381.47;;;7.17;100.00
55068;BME280;40965;52.368;9.712;2023-03-13T03:08:46;99371.09;;;7.15;100.00
55068;BME280;40965;52.368;9.712;2023-03-13T03:11:13;99371.06;;;7.17;100.00
55068;BME280;40965;52.368;9.712;2023-03-13T03:13:39;99357.19;;;7.16;100.00
55068;BME280;40965;52.368;9.712;2023-03-13T03:16:11;99349.50;;;7.10;100.00
55068;BME280;40965;52.368;9.712;2023-03-13T03:18:43;99352.19;;;7.05;100.00
55068;BME280;40965;52.368;9.712;2023-03-13T03:21:09;99341.84;;;6.99;100.00
55068;BME280;40965;52.368;9.712;2023-03-13T03:23:36;99336.69;;;6.96;100.00
55068;BME280;40965;52.368;9.712;2023-03-13T03:26:06;99329.00;;;6.90;100.00
55068;BME280;40965;52.368;9.712;2023-03-13T03:28:33;99324.66;;;6.89;100.00
55068;BME280;40965;52.368;9.712;2023-03-13T03:31:08;99317.75;;;6.88;100.00
55068;BME280;40965;52.368;9.712;2023-03-13T03:33:36;99314.28;;;6.87;100.00
55068;BME280;40965;52.368;9.712;2023-03-13T03:36:05;99300.41;;;6.87;100.00
55068;BME280;40965;52.368;9.712;2023-03-13T03:38:33;99300.41;;;6.88;100.00
55068;BME280;40965;52.368;9.712;2023-03-13T03:41:00;99289.06;;;6.91;100.00
55068;BME280;40965;52.368;9.712;2023-03-13T03:43:26;99291.66;;;6.92;100.00
55068;BME280;40965;52.368;9.712;2023-03-13T03:45:53;99269.94;;;6.93;100.00
55068;BME280;40965;52.368;9.712;2023-03-13T03:48:19;99260.38;;;6.95;100.00
55068;BME280;40965;52.368;9.712;2023-03-13T03:50:46;99255.16;;;6.97;100.00
55068;BME280;40965;52.368;9.712;2023-03-13T03:53:12;99256.84;;;7.00;100.00
55068;BME280;40965;52.368;9.712;2023-03-13T03:55:39;99249.84;;;7.03;100.00
55068;BME280;40965;52.368;9.712;2023-03-13T03:58:05;99249.75;;;7.09;100.00
55068;BME280;40965;52.368;9.712;2023-03-13T04:00:32;99248.88;;;7.10;100.00
55068;BME280;40965;52.368;9.712;2023-03-13T04:02:58;99237.53;;;7.13;100.00
55068;BME280;40965;52.368;9.712;2023-03-13T04:05:25;99234.03;;;7.14;100.00
55068;BME280;40965;52.368;9.712;2023-03-13T04:07:53;99237.47;;;7.18;100.00
55068;BME280;40965;52.368;9.712;2023-03-13T04:10:20;99237.53;;;7.15;100.00
55068;BME280;40965;52.368;9.712;2023-03-13T04:12:46;99241.84;;;7.14;100.00
55068;BME280;40965;52.368;9.712;2023-03-13T04:15:13;99241.88;;;7.12;100.00
55068;BME280;40965;52.368;9.712;2023-03-13T04:17:39;99239.34;;;7.09;100.00
55068;BME280;40965;52.368;9.712;2023-03-13T04:20:06;99230.72;;;7.06;100.00
55068;BME280;40965;52.368;9.712;2023-03-13T04:22:34;99211.69;;;7.02;100.00
55068;BME280;40965;52.368;9.712;2023-03-13T04:25:01;99217.78;;;7.01;100.00
55068;BME280;40965;52.368;9.712;2023-03-13T04:27:29;99213.53;;;6.97;100.00
55068;BME280;40965;52.368;9.712;2023-03-13T04:29:57;99198.84;;;6.93;100.00
55068;BME280;40965;52.368;9.712;2023-03-13T04:32:24;99191.16;;;6.88;100.00
55068;BME280;40965;52.368;9.712;2023-03-13T04:34:50;99196.38;;;6.85;100.00
55068;BME280;40965;52.368;9.712;2023-03-13T04:37:17;99186.06;;;6.82;100.00
55068;BME280;40965;52.368;9.712;2023-03-13T04:39:44;99174.78;;;6.80;100.00
55068;BME280;40965;52.368;9.712;2023-03-13T04:42:11;99180.00;;;6.80;100.00
55068;BME280;40965;52.368;9.712;2023-03-13T04:44:38;99161.81;;;6.78;100.00
55068;BME280;40965;52.368;9.712;2023-03-13T04:47:04;99165.28;;;6.79;100.00
55068;BME280;40965;52.368;9.712;2023-03-13T04:49:31;99145.38;;;6.78;100.00
55068;BME280;40965;52.368;9.712;2023-03-13T04:51:59;99149.59;;;6.84;100.00
55068;BME280;40965;52.368;9.712;2023-03-13T04:54:26;99146.97;;;6.85;100.00
55068;BME280;40965;52.368;9.712;2023-03-13T04:56:52;99138.28;;;6.86;100.00
55068;BME280;40965;52.368;9.712;2023-03-13T04:59:19;99124.34;;;6.90;100.00
55068;BME280;40965;52.368;9.712;2023-03-13T05:01:45;99130.38;;;6.91;100.00
55068;BME280;40965;52.368;9.712;2023-03-13T05:04:12;99113.88;;;6.92;100.00
55068;BME280;40965;52.368;9.712;2023-03-13T05:06:38;99112.09;;;6.95;100.00
55068;BME280;40965;52.368;9.712;2023-03-13T05:09:05;99112.94;;;6.98;100.00
55068;BME280;40965;52.368;9.712;2023-03-13T05:11:31;99107.59;;;7.04;100.00
55068;BME280;40965;52.368;9.712;2023-03-13T05:13:58;99111.03;;;7.06;100.00
55068;BME280;40965;52.368;9.712;2023-03-13T05:16:25;99112.72;;;7.08;100.00
55068;BME280;40965;52.368;9.712;2023-03-13T05:18:51;99102.31;;;7.08;100.00
55068;BME280;40965;52.368;9.712;2023-03-13T05:21:18;99107.53;;;7.08;100.00
55068;BME280;40965;52.368;9.712;2023-03-13T05:23:44;99109.19;;;7.11;100.00
55068;BME280;40965;52.368;9.712;2023-03-13T05:26:11;99099.63;;;7.11;100.00
55068;BME280;40965;52.368;9.712;2023-03-13T05:28:37;99096.13;;;7.14;100.00
55068;BME280;40965;52.368;9.712;2023-03-13T05:31:04;99092.63;;;7.15;100.00
55068;BME280;40965;52.368;9.712;2023-03-13T05:33:30;99083.88;;;7.19;100.00
55068;BME280;40965;52.368;9.712;2023-03-13T05:35:57;99081.16;;;7.25;100.00
55068;BME280;40965;52.368;9.712;2023-03-13T05:38:24;99075.00;;;7.29;100.00
55068;BME280;40965;52.368;9.712;2023-03-13T05:40:50;99075.78;;;7.33;100.00
55068;BME280;40965;52.368;9.712;2023-03-13T05:43:17;99060.94;;;7.38;100.00
55068;BME280;40965;52.368;9.712;2023-03-13T05:45:46;99061.69;;;7.43;100.00
55068;BME280;40965;52.368;9.712;2023-03-13T05:48:15;99073.81;;;7.44;100.00
55068;BME280;40965;52.368;9.712;2023-03-13T05:50:51;99057.28;;;7.47;100.00
55068;BME280;40965;52.368;9.712;2023-03-13T05:53:18;99054.63;;;7.49;100.00
55068;BME280;40965;52.368;9.712;2023-03-13T05:55:53;99063.25;;;7.51;100.00
55068;BME280;40965;52.368;9.712;2023-03-13T05:58:25;99054.50;;;7.53;100.00
55068;BME280;40965;52.368;9.712;2023-03-13T06:01:11;99050.22;;;7.52;100.00
55068;BME280;40965;52.368;9.712;2023-03-13T06:03:58;99040.56;;;7.56;100.00
55068;BME280;40965;52.368;9.712;2023-03-13T06:06:32;99044.91;;;7.57;100.00
55068;BME280;40965;52.368;9.712;2023-03-13T06:09:12;99054.38;;;7.59;100.00
55068;BME280;40965;52.368;9.712;2023-03-13T06:11:45;99045.69;;;7.60;100.00
55068;BME280;40965;52.368;9.712;2023-03-13T06:14:21;99050.78;;;7.65;100.00
55068;BME280;40965;52.368;9.712;2023-03-13T06:16:56;99041.22;;;7.66;100.00
55068;BME280;40965;52.368;9.712;2023-03-13T06:19:25;99046.41;;;7.67;100.00
55068;BME280;40965;52.368;9.712;2023-03-13T06:22:05;99042.88;;;7.70;100.00
55068;BME280;40965;52.368;9.712;2023-03-13T06:24:33;99034.03;;;7.75;100.00
55068;BME280;40965;52.368;9.712;2023-03-13T06:26:59;99043.56;;;7.76;100.00
55068;BME280;40965;52.368;9.712;2023-03-13T06:29:27;99034.97;;;7.73;100.00
55068;BME280;40965;52.368;9.712;2023-03-13T06:31:56;99023.66;;;7.74;100.00
55068;BME280;40965;52.368;9.712;2023-03-13T06:34:22;99030.63;;;7.73;100.00
55068;BME280;40965;52.368;9.712;2023-03-13T06:36:49;99023.56;;;7.78;100.00
55068;BME280;40965;52.368;9.712;2023-03-13T06:39:18;99024.38;;;7.81;100.00
55068;BME280;40965;52.368;9.712;2023-03-13T06:41:44;99024.31;;;7.84;100.00
55068;BME280;40965;52.368;9.712;2023-03-13T06:44:11;99017.25;;;7.89;100.00
55068;BME280;40965;52.368;9.712;2023-03-13T06:46:37;99020.59;;;7.94;100.00
55068;BME280;40965;52.368;9.712;2023-03-13T06:49:03;99012.69;;;7.97;100.00
55068;BME280;40965;52.368;9.712;2023-03-13T06:51:31;99011.69;;;8.03;100.00
55068;BME280;40965;52.368;9.712;2023-03-13T06:53:58;99004.69;;;8.05;100.00
55068;BME280;40965;52.368;9.712;2023-03-13T06:56:24;99005.50;;;8.07;100.00
55068;BME280;40965;52.368;9.712;2023-03-13T06:58:51;98995.91;;;8.09;100.00
55068;BME280;40965;52.368;9.712;2023-03-13T07:01:17;98994.13;;;8.09;100.00
55068;BME280;40965;52.368;9.712;2023-03-13T07:03:46;99001.94;;;8.09;100.00
55068;BME280;40965;52.368;9.712;2023-03-13T07:06:14;99002.81;;;8.10;100.00
55068;BME280;40965;52.368;9.712;2023-03-13T07:08:41;98996.69;;;8.13;100.00
55068;BME280;40965;52.368;9.712;2023-03-13T07:11:10;98996.59;;;8.16;100.00
55068;BME280;40965;52.368;9.712;2023-03-13T07:13:38;98996.53;;;8.17;100.00
55068;BME280;40965;52.368;9.712;2023-03-13T07:16:06;99001.69;;;8.20;100.00
55068;BME280;40965;52.368;9.712;2023-03-13T07:18:34;99004.16;;;8.25;100.00
55068;BME280;40965;52.368;9.712;2023-03-13T07:21:05;99004.84;;;8.33;100.00
55068;BME280;40965;52.368;9.712;2023-03-13T07:23:34;99001.25;;;8.37;100.00
55068;BME280;40965;52.368;9.712;2023-03-13T07:26:05;98992.38;;;8.46;100.00
55068;BME280;40965;52.368;9.712;2023-03-13T07:28:34;98994.88;;;8.49;100.00
55068;BME280;40965;52.368;9.712;2023-03-13T07:31:04;98993.78;;;8.58;100.00
55068;BME280;40965;52.368;9.712;2023-03-13T07:33:41;98992.69;;;8.65;100.00
55068;BME280;40965;52.368;9.712;2023-03-13T07:36:12;98985.50;;;8.73;100.00
55068;BME280;40965;52.368;9.712;2023-03-13T07:38:39;98988.81;;;8.80;100.00
55068;BME280;40965;52.368;9.712;2023-03-13T07:41:10;99001.66;;;8.88;100.00
55068;BME280;40965;52.368;9.712;2023-03-13T07:43:40;98998.00;;;8.93;100.00
55068;BME280;40965;52.368;9.712;2023-03-13T07:46:10;98997.84;;;9.00;100.00
55068;BME280;40965;52.368;9.712;2023-03-13T07:48:41;99004.63;;;9.05;100.00
55068;BME280;40965;52.368;9.712;2023-03-13T07:51:13;99015.59;;;9.17;100.00
55068;BME280;40965;52.368;9.712;2023-03-13T07:53:42;99006.88;;;9.46;100.00
55068;BME280;40965;52.368;9.712;2023-03-13T07:56:11;99010.25;;;9.50;100.00
55068;BME280;40965;52.368;9.712;2023-03-13T07:58:39;99017.63;;;9.65;100.00
55068;BME280;40965;52.368;9.712;2023-03-13T08:01:08;99017.91;;;9.84;100.00
55068;BME280;40965;52.368;9.712;2023-03-13T08:03:36;99009.66;;;9.97;100.00
55068;BME280;40965;52.368;9.712;2023-03-13T08:06:06;99015.31;;;10.09;100.00
55068;BME280;40965;52.368;9.712;2023-03-13T08:08:35;99019.47;;;10.15;100.00
55068;BME280;40965;52.368;9.712;2023-03-13T08:11:04;99013.09;;;10.24;100.00
55068;BME280;40965;52.368;9.712;2023-03-13T08:13:33;99016.25;;;10.35;100.00
55068;BME280;40965;52.368;9.712;2023-03-13T08:16:08;99015.91;;;10.45;100.00
55068;BME280;40965;52.368;9.712;2023-03-13T08:18:38;99013.94;;;10.51;100.00
55068;BME280;40965;52.368;9.712;2023-03-13T08:21:11;99013.94;;;10.51;100.00
55068;BME280;40965;52.368;9.712;2023-03-13T08:23:40;99005.88;;;10.57;100.00
55068;BME280;40965;52.368;9.712;2023-03-13T08:26:15;98992.81;;;10.57;100.00
55068;BME280;40965;52.368;9.712;2023-03-13T08:28:44;98994.81;;;10.74;100.00
55068;BME280;40965;52.368;9.712;2023-03-13T08:33:43;98987.41;;;10.86;100.00
55068;BME280;40965;52.368;9.712;2023-03-13T08:38:47;98974.25;;;11.11;100.00
55068;BME280;40965;52.368;9.712;2023-03-13T08:41:16;98984.59;;;11.14;100.00
55068;BME280;40965;52.368;9.712;2023-03-13T08:43:45;98967.75;;;11.21;100.00
55068;BME280;40965;52.368;9.712;2023-03-13T08:46:13;98963.00;;;11.31;100.00
55068;BME280;40965;52.368;9.712;2023-03-13T08:48:43;98974.75;;;11.43;100.00
55068;BME280;40965;52.368;9.712;2023-03-13T08:51:13;98973.69;;;11.49;100.00
55068;BME280;40965;52.368;9.712;2023-03-13T08:53:41;98970.78;;;11.55;100.00
55068;BME280;40965;52.368;9.712;2023-03-13T08:56:11;98978.56;;;11.58;100.00
55068;BME280;40965;52.368;9.712;2023-03-13T08:58:39;98967.03;;;11.62;100.00
55068;BME280;40965;52.368;9.712;2023-03-13T09:01:07;98973.78;;;11.68;100.00
55068;BME280;40965;52.368;9.712;2023-03-13T09:03:38;98961.41;;;11.71;100.00
55068;BME280;40965;52.368;9.712;2023-03-13T09:06:05;98968.50;;;11.69;100.00
55068;BME280;40965;52.368;9.712;2023-03-13T09:08:33;98959.44;;;11.77;100.00
55068;BME280;40965;52.368;9.712;2023-03-13T09:11:06;98954.94;;;11.80;100.00
55068;BME280;40965;52.368;9.712;2023-03-13T09:13:35;98954.88;;;11.82;100.00
55068;BME280;40965;52.368;9.712;2023-03-13T09:16:06;98934.50;;;11.88;100.00
55068;BME280;40965;52.368;9.712;2023-03-13T09:18:34;98942.91;;;11.97;100.00
55068;BME280;40965;52.368;9.712;2023-03-13T09:21:02;98933.22;;;11.99;100.00
55068;BME280;40965;52.368;9.712;2023-03-13T09:23:30;98950.59;;;12.01;100.00
55068;BME280;40965;52.368;9.712;2023-03-13T09:25:57;98933.03;;;12.03;100.00
55068;BME280;40965;52.368;9.712;2023-03-13T09:28:24;98946.47;;;12.16;100.00
55068;BME280;40965;52.368;9.712;2023-03-13T09:30:52;98943.50;;;12.24;100.00
55068;BME280;40965;52.368;9.712;2023-03-13T09:33:20;98922.41;;;12.27;100.00
55068;BME280;40965;52.368;9.712;2023-03-13T09:35:47;98946.53;;;12.35;100.00
55068;BME280;40965;52.368;9.712;2023-03-13T09:38:19;98934.31;;;12.34;100.00
55068;BME280;40965;52.368;9.712;2023-03-13T09:40:48;98928.22;;;12.34;100.00
55068;BME280;40965;52.368;9.712;2023-03-13T09:44:23;98919.22;;;12.39;100.00
55068;BME280;40965;52.368;9.712;2023-03-13T09:46:44;98935.91;;;12.38;100.00
55068;BME280;40965;52.368;9.712;2023-03-13T09:49:37;98932.91;;;12.46;100.00
55068;BME280;40965;52.368;9.712;2023-03-13T09:55:19;98925.50;;;12.56;100.00
55068;BME280;40965;52.368;9.712;2023-03-13T09:57:54;98927.97;;;12.59;100.00
55068;BME280;40965;52.368;9.712;2023-03-13T10:00:30;98924.66;;;12.74;100.00
55068;BME280;40965;52.368;9.712;2023-03-13T10:03:14;98927.28;;;12.74;100.00
55068;BME280;40965;52.368;9.712;2023-03-13T10:05:48;98923.91;;;12.72;100.00
55068;BME280;40965;52.368;9.712;2023-03-13T10:10:53;98942.03;;;12.77;100.00
55068;BME280;40965;52.368;9.712;2023-03-13T10:13:40;98930.56;;;12.80;100.00
55068;BME280;40965;52.368;9.712;2023-03-13T10:16:26;98934.25;;;12.76;100.00
55068;BME280;40965;52.368;9.712;2023-03-13T10:19:16;98943.94;;;12.73;100.00
55068;BME280;40965;52.368;9.712;2023-03-13T10:21:49;98928.28;;;12.72;100.00
55068;BME280;40965;52.368;9.712;2023-03-13T10:24:19;98924.94;;;12.68;100.00
55068;BME280;40965;52.368;9.712;2023-03-13T10:26:56;98925.66;;;12.72;100.00
55068;BME280;40965;52.368;9.712;2023-03-13T10:29:28;98936.78;;;12.77;100.00
55068;BME280;40965;52.368;9.712;2023-03-13T10:31:57;98932.97;;;12.84;100.00
55068;BME280;40965;52.368;9.712;2023-03-13T10:34:48;98933.53;;;12.91;100.00
55068;BME280;40965;52.368;9.712;2023-03-13T10:37:29;98922.59;;;13.00;100.00
55068;BME280;40965;52.368;9.712;2023-03-13T10:40:19;98921.34;;;13.09;100.00
55068;BME280;40965;52.368;9.712;2023-03-13T10:42:51;98910.78;;;13.28;100.00
55068;BME280;40965;52.368;9.712;2023-03-13T10:45:20;98919.06;;;13.92;100.00
55068;BME280;40965;52.368;9.712;2023-03-13T10:47:55;98917.59;;;14.88;94.32
55068;BME280;40965;52.368;9.712;2023-03-13T10:50:25;98898.03;;;15.25;91.01
55068;BME280;40965;52.368;9.712;2023-03-13T10:52:53;98905.78;;;15.44;90.60
55068;BME280;40965;52.368;9.712;2023-03-13T10:55:23;98883.03;;;15.87;87.04
55068;BME280;40965;52.368;9.712;2023-03-13T10:57:58;98894.41;;;16.18;84.23
55068;BME280;40965;52.368;9.712;2023-03-13T11:00:33;98901.78;;;15.83;84.93
55068;BME280;40965;52.368;9.712;2023-03-13T11:03:06;98886.78;;;15.83;84.78
55068;BME280;40965;52.368;9.712;2023-03-13T11:05:56;98889.53;;;15.82;84.24
55068;BME280;40965;52.368;9.712;2023-03-13T11:08:26;98891.03;;;15.39;86.53
55068;BME280;40965;52.368;9.712;2023-03-13T11:10:59;98900.09;;;15.03;87.98
55068;BME280;40965;52.368;9.712;2023-03-13T11:13:41;98883.63;;;14.84;88.49
55068;BME280;40965;52.368;9.712;2023-03-13T11:16:23;98880.97;;;14.68;89.81
55068;BME280;40965;52.368;9.712;2023-03-13T11:19:12;98888.09;;;14.66;89.24
55068;BME280;40965;52.368;9.712;2023-03-13T11:24:45;98852.56;;;15.21;85.29
55068;BME280;40965;52.368;9.712;2023-03-13T11:31:02;98861.00;;;15.58;83.21
55068;BME280;40965;52.368;9.712;2023-03-13T11:37:04;98835.25;;;16.64;77.26
55068;BME280;40965;52.368;9.712;2023-03-13T11:40:15;98853.28;;;16.43;77.27
55068;BME280;40965;52.368;9.712;2023-03-13T11:46:04;98825.06;;;17.14;73.08
55068;BME280;40965;52.368;9.712;2023-03-13T11:48:50;98820.31;;;17.32;73.00
55068;BME280;40965;52.368;9.712;2023-03-13T11:51:58;98817.53;;;18.89;67.16
55068;BME280;40965;52.368;9.712;2023-03-13T11:55:06;98782.97;;;19.14;63.47
55068;BME280;40965;52.368;9.712;2023-03-13T12:00:45;98797.75;;;19.06;62.18
55068;BME280;40965;52.368;9.712;2023-03-13T12:03:19;98812.38;;;17.85;65.57
55068;BME280;40965;52.368;9.712;2023-03-13T12:05:58;98811.16;;;17.38;68.47
55068;BME280;40965;52.368;9.712;2023-03-13T12:08:35;98797.84;;;18.30;64.69
55068;BME280;40965;52.368;9.712;2023-03-13T12:11:24;98804.94;;;20.22;58.89
55068;BME280;40965;52.368;9.712;2023-03-13T12:14:03;98788.47;;;20.85;55.36
55068;BME280;40965;52.368;9.712;2023-03-13T12:16:44;98804.47;;;19.58;57.77
55068;BME280;40965;52.368;9.712;2023-03-13T12:19:26;98799.69;;;19.04;57.89
55068;BME280;40965;52.368;9.712;2023-03-13T12:22:05;98797.25;;;19.00;58.07
55068;BME280;40965;52.368;9.712;2023-03-13T12:24:43;98781.38;;;20.06;54.65
55068;BME280;40965;52.368;9.712;2023-03-13T12:27:18;98776.13;;;20.61;52.15
55068;BME280;40965;52.368;9.712;2023-03-13T12:30:23;98731.63;;;20.42;50.29
55068;BME280;40965;52.368;9.712;2023-03-13T12:33:02;98775.06;;;21.40;48.50
55068;BME280;40965;52.368;9.712;2023-03-13T12:35:42;98753.16;;;19.93;50.93
55068;BME280;40965;52.368;9.712;2023-03-13T12:38:25;98721.03;;;18.67;54.02
55068;BME280;40965;52.368;9.712;2023-03-13T12:41:18;98755.19;;;20.01;51.39
55068;BME280;40965;52.368;9.712;2023-03-13T12:43:50;98746.44;;;20.99;49.15
55068;BME280;40965;52.368;9.712;2023-03-13T12:46:38;98755.72;;;20.73;48.93
55068;BME280;40965;52.368;9.712;2023-03-13T12:49:35;98759.50;;;21.77;46.19
55068;BME280;40965;52.368;9.712;2023-03-13T12:52:24;98745.59;;;21.53;45.53
55068;BME280;40965;52.368;9.712;2023-03-13T12:55:28;98730.28;;;21.24;46.24
55068;BME280;40965;52.368;9.712;2023-03-13T12:58:20;98738.41;;;18.95;52.10
55068;BME280;40965;52.368;9.712;2023-03-13T13:01:07;98736.75;;;18.94;54.06
55068;BME280;40965;52.368;9.712;2023-03-13T13:03:56;98732.97;;;20.13;51.03
55068;BME280;40965;52.368;9.712;2023-03-13T13:06:26;98720.34;;;21.68;47.34
55068;BME280;40965;52.368;9.712;2023-03-13T13:09:57;98724.41;;;21.30;47.15
55068;BME280;40965;52.368;9.712;2023-03-13T13:12:40;98730.81;;;19.96;50.44
55068;BME280;40965;52.368;9.712;2023-03-13T13:27:52;98678.53;;;18.07;55.16
55068;BME280;40965;52.368;9.712;2023-03-13T13:36:55;98672.91;;;18.12;53.84
55068;BME280;40965;52.368;9.712;2023-03-13T13:39:42;98679.34;;;19.51;50.61
55068;BME280;40965;52.368;9.712;2023-03-13T13:45:03;98669.41;;;19.20;50.23
55068;BME280;40965;52.368;9.712;2023-03-13T13:47:50;98668.56;;;19.08;50.41
55068;BME280;40965;52.368;9.712;2023-03-13T13:53:51;98662.00;;;19.70;46.54
55068;BME280;40965;52.368;9.712;2023-03-13T13:56:38;98659.59;;;19.56;46.83
55068;BME280;40965;52.368;9.712;2023-03-13T14:01:48;98642.59;;;19.58;46.90
55068;BME280;40965;52.368;9.712;2023-03-13T14:04:26;98662.97;;;20.03;46.35
55068;BME280;40965;52.368;9.712;2023-03-13T14:06:57;98644.25;;;20.48;44.92
55068;BME280;40965;52.368;9.712;2023-03-13T14:09:34;98652.34;;;19.46;46.42
55068;BME280;40965;52.368;9.712;2023-03-13T14:12:31;98668.81;;;19.16;47.35
55068;BME280;40965;52.368;9.712;2023-03-13T14:15:12;98664.66;;;19.70;46.56
55068;BME280;40965;52.368;9.712;2023-03-13T14:17:46;98647.25;;;21.09;43.96
55068;BME280;40965;52.368;9.712;2023-03-13T14:20:35;98649.78;;;21.10;43.92
55068;BME280;40965;52.368;9.712;2023-03-13T14:23:08;98631.66;;;20.50;45.79
55068;BME280;40965;52.368;9.712;2023-03-13T14:25:49;98652.47;;;20.02;46.73
55068;BME280;40965;52.368;9.712;2023-03-13T14:30:46;98648.06;;;20.23;46.85